Forside
METAR-TAF:

METAR-TAF

Lufthavne :

Pohnpei, Mikronesien

Breddekreds: 06-59N, længdekreds: 158-12E, højde: 2 m

Aktuelle vejr

Denne rapport blev lavet for 4 timer og 25 minutter siden, kl. 04:51 UTC
Vind 10 kt fra østnordøst
Temperatur 32°C
Fugtighed 71%
Tryk 1007 hPa
Sigt: 24.1 km
Brudte skyer i en højde af 1800 ft, Optårnet Cumulus.
Brudte skyer i en højde af 13000 ft
Overskyet i en højde af 30000 ft

METAR: PTPN 230451Z 06010KT 15SM BKN018TCU BKN130 OVC300 32/26 A2974 RMK TCU ALQDS LAST

Tid: 20:16 (09:16 UTC)

Vejrudsigter

Denne rapport blev lavet for 9 timer og 56 minutter siden, kl. 23:20 UTC
Foreløbig gælder fra 23 på 00 UTC til 23 på 24 UTC
Vind 10 kt fra østnordøst
Sigt: 10 km
Spredte skyer i en højde af 1800 ft
Brudte skyer i en højde af 13000 ft
Overskyet i en højde af 30000 ft
byger i nærheden
Midlertidig
fra 23 på 00 UTC til 23 på 04 UTC
Brudte skyer i en højde af 1800 ft
Overskyet i en højde af 30000 ft

TAF: PTPN 222320Z 2300/2324 07010KT P6SM VCSH SCT018 BKN130 OVC300 TEMPO 2300/2304 BKN018 OVC300

Vejrobservationer og prognoser fra mere end 4000 lufthavne (METAR og TAF).

De gule og røde prikker repræsenterer de meteorologiske stationer.

Flyt musen over at se navnet på stationen.

Så klik over at se vejr observationer og prognoser.

At skifte det kort: Klik på de grønne knapper med et sort kors for at zoome ind; på den grønne knap med en bindestreg for at zoome ud; eller på de grønne pile for tilstødende kort.


METAR-TAF: